createdAt,value
2023-02-19T00:01:49.357Z,11.15
2023-02-19T00:04:22.101Z,11.11
2023-02-19T00:06:50.243Z,10.93
2023-02-19T00:09:20.298Z,10.93
2023-02-19T00:11:48.668Z,10.81
2023-02-19T00:14:21.859Z,10.75
2023-02-19T00:16:50.130Z,10.70
2023-02-19T00:19:20.465Z,10.77
2023-02-19T00:21:51.335Z,10.61
2023-02-19T00:24:21.847Z,10.69
2023-02-19T00:26:50.757Z,10.54
2023-02-19T00:29:21.716Z,10.40
2023-02-19T00:31:50.177Z,10.41
2023-02-19T00:34:17.627Z,10.44
2023-02-19T00:36:45.317Z,10.38
2023-02-19T00:39:16.122Z,10.42
2023-02-19T00:41:44.261Z,10.24
2023-02-19T00:44:13.313Z,10.17
2023-02-19T00:46:44.405Z,9.99
2023-02-19T00:49:21.407Z,10.13
2023-02-19T00:51:50.505Z,10.14
2023-02-19T00:54:19.477Z,10.14
2023-02-19T00:56:47.034Z,10.14
2023-02-19T00:59:15.714Z,10.11
2023-02-19T01:01:46.065Z,10.18
2023-02-19T01:04:13.801Z,10.16
2023-02-19T01:06:41.933Z,9.99
2023-02-19T01:09:10.130Z,9.93
2023-02-19T01:11:38.783Z,9.70
2023-02-19T01:14:06.726Z,9.71
2023-02-19T01:16:34.965Z,9.55
2023-02-19T01:19:03.620Z,9.65
2023-02-19T01:21:31.862Z,9.65
2023-02-19T01:24:00.616Z,9.67
2023-02-19T01:26:31.374Z,9.54
2023-02-19T01:29:00.681Z,9.64
2023-02-19T01:31:29.715Z,9.74
2023-02-19T01:34:00.447Z,9.78
2023-02-19T01:36:29.183Z,9.81
2023-02-19T01:39:00.214Z,9.80
2023-02-19T01:41:28.120Z,9.69
2023-02-19T01:44:05.355Z,9.92
2023-02-19T01:46:35.258Z,9.86
2023-02-19T01:49:10.543Z,9.82
2023-02-19T01:51:44.246Z,9.81
2023-02-19T01:54:16.184Z,9.76
2023-02-19T01:56:47.122Z,9.79
2023-02-19T01:59:15.174Z,9.67
2023-02-19T02:01:42.984Z,9.72
2023-02-19T02:04:12.960Z,9.58
2023-02-19T02:06:48.265Z,9.60
2023-02-19T02:09:37.036Z,9.40
2023-02-19T02:12:04.978Z,9.53
2023-02-19T02:14:37.342Z,9.74
2023-02-19T02:17:20.086Z,9.74
2023-02-19T02:20:19.104Z,9.65
2023-02-19T02:23:03.977Z,9.63
2023-02-19T02:26:04.425Z,9.76
2023-02-19T02:29:16.783Z,9.84
2023-02-19T02:31:58.516Z,9.85
2023-02-19T02:34:41.827Z,9.97
2023-02-19T02:37:11.295Z,10.05
2023-02-19T02:39:41.394Z,10.02
2023-02-19T02:42:27.174Z,10.03
2023-02-19T02:45:35.139Z,10.04
2023-02-19T02:48:10.580Z,10.11
2023-02-19T02:50:40.508Z,10.17
2023-02-19T02:53:36.734Z,10.18
2023-02-19T02:56:26.618Z,10.21
2023-02-19T02:58:58.532Z,10.34
2023-02-19T03:01:48.811Z,10.39
2023-02-19T03:04:32.003Z,10.51
2023-02-19T03:07:04.301Z,10.48
2023-02-19T03:09:43.241Z,10.62
2023-02-19T03:12:34.262Z,10.33
2023-02-19T03:15:28.014Z,10.43
2023-02-19T03:18:20.458Z,10.44
2023-02-19T03:21:07.978Z,10.28
2023-02-19T03:23:56.684Z,10.25
2023-02-19T03:26:26.391Z,10.24
2023-02-19T03:29:16.501Z,10.15
2023-02-19T03:31:47.581Z,10.05
2023-02-19T03:34:20.830Z,10.15
2023-02-19T03:36:56.911Z,10.01
2023-02-19T03:39:24.954Z,9.98
2023-02-19T03:41:58.256Z,10.14
2023-02-19T03:44:44.983Z,10.11
2023-02-19T03:47:24.740Z,9.99
2023-02-19T03:50:04.143Z,10.04
2023-02-19T03:52:56.268Z,10.11
2023-02-19T03:55:33.699Z,10.19
2023-02-19T03:58:08.053Z,10.02
2023-02-19T04:00:44.627Z,10.15
2023-02-19T04:03:21.086Z,9.98
2023-02-19T04:05:54.075Z,9.90
2023-02-19T04:08:23.730Z,9.96
2023-02-19T04:11:00.240Z,9.94
2023-02-19T04:13:38.869Z,10.02
2023-02-19T04:16:15.708Z,10.17
2023-02-19T04:18:46.908Z,10.05
2023-02-19T04:21:16.001Z,9.88
2023-02-19T04:23:45.717Z,10.06
2023-02-19T04:26:15.421Z,9.99
2023-02-19T04:28:44.276Z,9.92
2023-02-19T04:31:12.481Z,9.99
2023-02-19T04:33:39.813Z,10.03
2023-02-19T04:36:08.171Z,9.94
2023-02-19T04:38:35.404Z,10.11
2023-02-19T04:41:03.143Z,10.03
2023-02-19T04:43:30.418Z,10.11
2023-02-19T04:46:02.400Z,10.09
2023-02-19T04:48:29.972Z,9.86
2023-02-19T04:50:59.324Z,9.85
2023-02-19T04:53:27.760Z,9.82
2023-02-19T04:55:55.407Z,9.85
2023-02-19T04:58:23.711Z,9.71
2023-02-19T05:00:54.641Z,9.76
2023-02-19T05:03:41.014Z,9.70
2023-02-19T05:06:12.097Z,9.83
2023-02-19T05:08:39.977Z,9.62
2023-02-19T05:11:10.944Z,9.77
2023-02-19T05:13:39.845Z,9.78
2023-02-19T05:16:16.363Z,9.72
2023-02-19T05:18:45.897Z,9.74
2023-02-19T05:21:14.201Z,9.83
2023-02-19T05:23:41.972Z,9.78
2023-02-19T05:26:15.462Z,9.87
2023-02-19T05:28:42.765Z,9.75
2023-02-19T05:31:12.505Z,9.76
2023-02-19T05:33:42.615Z,9.74
2023-02-19T05:36:14.317Z,9.67
2023-02-19T05:38:42.091Z,9.82
2023-02-19T05:41:15.436Z,9.99
2023-02-19T05:43:44.308Z,10.07
2023-02-19T05:46:14.953Z,9.83
2023-02-19T05:48:42.515Z,10.01
2023-02-19T05:51:14.952Z,10.04
2023-02-19T05:53:43.759Z,10.05
2023-02-19T05:56:46.697Z,10.11
2023-02-19T05:59:22.094Z,10.19
2023-02-19T06:01:51.601Z,10.06
2023-02-19T06:04:20.507Z,9.91
2023-02-19T06:06:48.644Z,10.08
2023-02-19T06:09:16.102Z,10.22
2023-02-19T06:11:44.826Z,10.23
2023-02-19T06:14:15.441Z,10.28
2023-02-19T06:16:43.115Z,10.60
2023-02-19T06:19:10.378Z,11.31
2023-02-19T06:21:38.129Z,11.57
2023-02-19T06:24:09.851Z,11.97
2023-02-19T06:26:38.304Z,12.80
2023-02-19T06:29:05.546Z,13.39
2023-02-19T06:31:33.844Z,13.91
2023-02-19T06:34:04.418Z,14.34
2023-02-19T06:36:31.916Z,15.12
2023-02-19T06:39:04.720Z,15.15
2023-02-19T06:41:33.158Z,15.36
2023-02-19T06:44:00.591Z,15.57
2023-02-19T06:46:28.337Z,15.72
2023-02-19T06:48:55.585Z,15.82
2023-02-19T06:51:24.459Z,15.51
2023-02-19T06:53:53.024Z,16.06
2023-02-19T06:56:31.969Z,17.40
2023-02-19T06:59:01.499Z,17.08
2023-02-19T07:01:32.196Z,18.08
2023-02-19T07:04:00.478Z,16.08
2023-02-19T07:06:30.199Z,15.95
2023-02-19T07:08:58.830Z,14.13
2023-02-19T07:11:29.111Z,13.67
2023-02-19T07:13:59.342Z,13.44
2023-02-19T07:16:27.532Z,14.61
2023-02-19T07:18:59.872Z,16.42
2023-02-19T07:21:29.573Z,17.02
2023-02-19T07:23:58.693Z,17.68
2023-02-19T07:26:27.304Z,18.30
2023-02-19T07:28:54.735Z,17.97
2023-02-19T07:31:24.216Z,17.39
2023-02-19T07:33:55.138Z,16.33
2023-02-19T07:36:24.475Z,16.30
2023-02-19T07:38:56.811Z,16.40
2023-02-19T07:41:26.954Z,16.74
2023-02-19T07:43:57.815Z,16.96
2023-02-19T07:46:25.783Z,16.88
2023-02-19T07:48:53.091Z,16.60
2023-02-19T07:51:21.698Z,16.33
2023-02-19T07:53:50.649Z,15.88
2023-02-19T07:56:19.538Z,16.39
2023-02-19T07:58:47.778Z,15.75
2023-02-19T08:01:43.406Z,16.14
2023-02-19T08:04:15.274Z,16.78
2023-02-19T08:06:43.409Z,16.68
2023-02-19T08:09:11.867Z,16.47
2023-02-19T08:12:09.726Z,16.73
2023-02-19T08:14:37.000Z,16.70
2023-02-19T08:17:14.326Z,16.83
2023-02-19T08:19:43.076Z,16.77
2023-02-19T08:22:11.497Z,16.66
2023-02-19T08:24:43.050Z,17.03
2023-02-19T08:27:10.761Z,16.34
2023-02-19T08:29:39.146Z,15.51
2023-02-19T08:32:08.205Z,15.99
2023-02-19T08:34:36.187Z,15.98
2023-02-19T08:37:07.197Z,15.82
2023-02-19T08:39:34.843Z,15.88
2023-02-19T08:42:03.868Z,16.21
2023-02-19T08:44:33.385Z,15.80
2023-02-19T08:47:02.895Z,16.38
2023-02-19T08:49:30.269Z,17.36
2023-02-19T08:52:02.378Z,17.63
2023-02-19T08:54:30.546Z,16.76
2023-02-19T08:56:58.546Z,16.81
2023-02-19T08:59:26.306Z,16.28
2023-02-19T09:01:58.815Z,16.23
2023-02-19T09:04:29.026Z,15.74
2023-02-19T09:07:00.939Z,16.05
2023-02-19T09:09:28.939Z,16.02
2023-02-19T09:11:57.659Z,16.52
2023-02-19T09:14:24.937Z,16.00
2023-02-19T09:16:53.379Z,16.43
2023-02-19T09:19:20.794Z,17.43
2023-02-19T09:21:51.312Z,17.72
2023-02-19T09:24:19.090Z,17.75
2023-02-19T09:26:51.995Z,17.13
2023-02-19T09:29:22.680Z,18.56
2023-02-19T09:31:50.325Z,18.23
2023-02-19T09:34:19.118Z,18.13
2023-02-19T09:36:50.234Z,18.63
2023-02-19T09:39:21.624Z,19.06
2023-02-19T09:41:55.524Z,19.57
2023-02-19T09:44:36.938Z,19.79
2023-02-19T09:47:13.441Z,18.87
2023-02-19T09:49:50.314Z,18.20
2023-02-19T09:52:37.126Z,18.28
2023-02-19T09:55:17.727Z,17.46
2023-02-19T09:57:48.495Z,17.81
2023-02-19T10:00:28.353Z,17.88
2023-02-19T10:03:08.819Z,17.97
2023-02-19T10:05:36.913Z,18.32
2023-02-19T10:08:08.780Z,18.01
2023-02-19T10:10:38.078Z,17.71
2023-02-19T10:13:23.296Z,18.35
2023-02-19T10:15:52.383Z,19.29
2023-02-19T10:18:24.634Z,19.51
2023-02-19T10:20:53.477Z,19.46
2023-02-19T10:23:21.450Z,19.66
2023-02-19T10:25:59.047Z,19.70
2023-02-19T10:28:36.411Z,20.46
2023-02-19T10:31:16.340Z,20.44
2023-02-19T10:33:56.159Z,20.29
2023-02-19T10:36:41.178Z,19.88
2023-02-19T10:39:47.427Z,19.74
2023-02-19T10:42:22.394Z,20.32
2023-02-19T10:45:02.931Z,20.53
2023-02-19T10:47:33.035Z,19.78
2023-02-19T10:50:03.993Z,19.63
2023-02-19T10:52:36.570Z,19.18
2023-02-19T10:55:19.361Z,19.27
2023-02-19T10:57:50.542Z,19.18
2023-02-19T11:00:22.968Z,19.59
2023-02-19T11:02:51.253Z,19.84
2023-02-19T11:05:20.390Z,19.89
2023-02-19T11:07:57.417Z,19.82
2023-02-19T11:10:30.339Z,20.27
2023-02-19T11:13:01.619Z,20.04
2023-02-19T11:15:32.399Z,19.31
2023-02-19T11:18:27.199Z,19.18
2023-02-19T11:20:57.954Z,18.68
2023-02-19T11:23:31.406Z,19.30
2023-02-19T11:26:02.810Z,19.58
2023-02-19T11:28:40.151Z,20.00
2023-02-19T11:31:23.741Z,19.95
2023-02-19T11:33:59.183Z,20.02
2023-02-19T11:36:38.396Z,19.60
2023-02-19T11:39:19.387Z,19.73
2023-02-19T11:41:53.821Z,18.92
2023-02-19T11:44:49.254Z,19.06
2023-02-19T11:47:37.948Z,19.08
2023-02-19T11:50:44.636Z,18.63
2023-02-19T11:53:52.919Z,19.15
2023-02-19T11:56:41.997Z,18.85
2023-02-19T11:59:30.409Z,19.00
2023-02-19T12:02:24.845Z,18.29
2023-02-19T12:05:14.144Z,17.80
2023-02-19T12:08:09.627Z,18.26
2023-02-19T12:10:46.408Z,18.07
2023-02-19T12:13:38.637Z,18.16
2023-02-19T12:16:35.819Z,17.63
2023-02-19T12:19:16.126Z,17.60
2023-02-19T12:22:11.642Z,17.57
2023-02-19T12:25:01.020Z,17.57
2023-02-19T12:27:31.608Z,17.06
2023-02-19T12:30:25.573Z,17.14
2023-02-19T12:33:21.940Z,17.48
2023-02-19T12:36:09.802Z,17.73
2023-02-19T12:38:49.145Z,17.82
2023-02-19T12:41:25.386Z,17.87
2023-02-19T12:43:58.430Z,17.66
2023-02-19T12:46:35.021Z,17.66
2023-02-19T12:49:25.141Z,18.13
2023-02-19T12:52:16.146Z,18.31
2023-02-19T12:54:55.669Z,18.35
2023-02-19T12:57:31.792Z,18.46
2023-02-19T13:00:00.386Z,18.70
2023-02-19T13:02:38.859Z,18.16
2023-02-19T13:05:23.965Z,18.11
2023-02-19T13:07:57.170Z,17.73
2023-02-19T13:10:32.418Z,17.35
2023-02-19T13:13:07.437Z,17.25
2023-02-19T13:15:42.702Z,17.03
2023-02-19T13:18:17.545Z,16.72
2023-02-19T13:20:53.018Z,16.73
2023-02-19T13:23:56.187Z,16.16
2023-02-19T13:27:17.450Z,16.34
2023-02-19T13:30:24.669Z,16.35
2023-02-19T13:33:28.086Z,16.46
2023-02-19T13:36:21.792Z,16.04
2023-02-19T13:38:53.875Z,16.06
2023-02-19T13:41:29.794Z,16.27
2023-02-19T13:44:02.777Z,16.14
2023-02-19T13:46:43.514Z,16.39
2023-02-19T13:49:24.561Z,16.65
2023-02-19T13:51:54.030Z,16.76
2023-02-19T13:54:28.344Z,16.74
2023-02-19T13:57:26.509Z,17.10
2023-02-19T13:59:59.192Z,16.81
2023-02-19T14:02:34.679Z,16.56
2023-02-19T14:05:10.214Z,16.48
2023-02-19T14:07:54.181Z,16.57
2023-02-19T14:10:48.799Z,16.74
2023-02-19T14:13:50.875Z,17.16
2023-02-19T14:16:38.991Z,16.94
2023-02-19T14:19:37.037Z,16.43
2023-02-19T14:22:59.169Z,16.60
2023-02-19T14:25:41.800Z,16.79
2023-02-19T14:28:35.371Z,16.16
2023-02-19T14:31:27.480Z,16.29
2023-02-19T14:34:06.716Z,16.24
2023-02-19T14:36:48.776Z,16.33
2023-02-19T14:39:41.300Z,16.36
2023-02-19T14:42:17.848Z,16.44
2023-02-19T14:44:59.359Z,16.19
2023-02-19T14:47:31.082Z,16.10
2023-02-19T14:50:09.089Z,16.03
2023-02-19T14:52:41.205Z,15.95
2023-02-19T14:55:25.729Z,15.59
2023-02-19T14:57:57.109Z,15.72
2023-02-19T15:00:38.595Z,15.62
2023-02-19T15:03:07.150Z,15.66
2023-02-19T15:05:37.314Z,15.41
2023-02-19T15:08:12.216Z,15.45
2023-02-19T15:10:42.609Z,15.46
2023-02-19T15:13:17.912Z,15.21
2023-02-19T15:15:50.805Z,15.34
2023-02-19T15:18:22.707Z,15.32
2023-02-19T15:20:51.911Z,15.38
2023-02-19T15:23:24.431Z,15.35
2023-02-19T15:25:52.658Z,15.44
2023-02-19T15:28:26.349Z,15.38
2023-02-19T15:30:58.555Z,15.18
2023-02-19T15:33:28.042Z,15.10
2023-02-19T15:36:03.166Z,15.10
2023-02-19T15:38:30.607Z,15.10
2023-02-19T15:40:58.839Z,14.96
2023-02-19T15:43:49.935Z,15.01
2023-02-19T15:46:23.235Z,14.86
2023-02-19T15:49:03.092Z,14.77
2023-02-19T15:51:39.458Z,14.78
2023-02-19T15:54:27.176Z,14.75
2023-02-19T15:57:00.735Z,14.77
2023-02-19T15:59:37.335Z,14.71
2023-02-19T16:02:06.250Z,14.58
2023-02-19T16:04:36.134Z,14.70
2023-02-19T16:07:04.269Z,14.54
2023-02-19T16:09:40.702Z,14.67
2023-02-19T16:12:25.293Z,14.64
2023-02-19T16:14:53.994Z,14.57
2023-02-19T16:17:27.968Z,14.52
2023-02-19T16:20:01.486Z,14.52
2023-02-19T16:22:40.346Z,14.39
2023-02-19T16:25:08.357Z,14.34
2023-02-19T16:27:42.484Z,14.38
2023-02-19T16:30:16.930Z,14.45
2023-02-19T16:32:46.979Z,14.45
2023-02-19T16:35:41.917Z,14.11
2023-02-19T16:38:17.405Z,14.21
2023-02-19T16:41:07.779Z,14.10
2023-02-19T16:43:43.530Z,14.13
2023-02-19T16:46:14.480Z,14.00
2023-02-19T16:48:42.729Z,14.15
2023-02-19T16:51:21.614Z,14.11
2023-02-19T16:53:49.238Z,14.02
2023-02-19T16:56:18.971Z,14.07
2023-02-19T16:58:47.962Z,14.22
2023-02-19T17:01:16.190Z,14.01
2023-02-19T17:03:47.280Z,13.80
2023-02-19T17:06:16.726Z,14.08
2023-02-19T17:08:44.797Z,14.07
2023-02-19T17:11:14.592Z,13.90
2023-02-19T17:13:45.175Z,13.81
2023-02-19T17:16:22.049Z,13.97
2023-02-19T17:18:52.194Z,13.82
2023-02-19T17:21:28.179Z,13.84
2023-02-19T17:23:57.450Z,14.01
2023-02-19T17:26:32.001Z,14.00
2023-02-19T17:29:01.339Z,14.03
2023-02-19T17:31:30.015Z,13.89
2023-02-19T17:33:58.718Z,13.89
2023-02-19T17:36:32.387Z,13.87
2023-02-19T17:39:05.144Z,13.95
2023-02-19T17:41:33.301Z,13.91
2023-02-19T17:44:02.106Z,13.81
2023-02-19T17:46:29.373Z,13.72
2023-02-19T17:48:57.151Z,13.68
2023-02-19T17:51:25.364Z,13.56
2023-02-19T17:53:54.618Z,13.62
2023-02-19T17:56:25.645Z,13.76
2023-02-19T17:58:54.894Z,13.55
2023-02-19T18:01:24.712Z,13.47
2023-02-19T18:03:52.874Z,13.60
2023-02-19T18:06:20.892Z,13.47
2023-02-19T18:08:51.437Z,13.52
2023-02-19T18:11:25.393Z,13.48
2023-02-19T18:13:54.389Z,13.62
2023-02-19T18:16:23.960Z,13.48
2023-02-19T18:18:51.911Z,13.51
2023-02-19T18:21:25.289Z,13.50
2023-02-19T18:23:57.649Z,13.44
2023-02-19T18:26:27.242Z,13.61
2023-02-19T18:28:57.993Z,13.61
2023-02-19T18:31:26.340Z,13.43
2023-02-19T18:33:55.148Z,13.40
2023-02-19T18:36:23.512Z,13.28
2023-02-19T18:38:51.464Z,13.36
2023-02-19T18:41:21.681Z,13.25
2023-02-19T18:43:52.079Z,13.30
2023-02-19T18:46:21.139Z,13.19
2023-02-19T18:48:49.895Z,12.91
2023-02-19T18:51:18.369Z,13.09
2023-02-19T18:53:46.268Z,13.00
2023-02-19T18:56:16.069Z,13.00
2023-02-19T18:58:45.209Z,12.89
2023-02-19T19:01:14.325Z,12.90
2023-02-19T19:03:44.625Z,12.71
2023-02-19T19:06:12.191Z,12.69
2023-02-19T19:08:39.857Z,12.90
2023-02-19T19:11:07.268Z,12.81
2023-02-19T19:13:34.972Z,12.78
2023-02-19T19:16:05.223Z,12.78
2023-02-19T19:18:38.287Z,12.45
2023-02-19T19:21:06.590Z,12.75
2023-02-19T19:23:36.436Z,12.71
2023-02-19T19:26:06.229Z,12.67
2023-02-19T19:28:35.423Z,12.44
2023-02-19T19:31:05.276Z,12.59
2023-02-19T19:33:32.968Z,12.27
2023-02-19T19:36:12.682Z,12.29
2023-02-19T19:38:41.743Z,12.31
2023-02-19T19:41:14.886Z,12.40
2023-02-19T19:43:44.467Z,12.50
2023-02-19T19:46:20.001Z,12.26
2023-02-19T19:48:53.420Z,12.53
2023-02-19T19:51:22.490Z,12.17
2023-02-19T19:53:50.609Z,12.41
2023-02-19T19:56:19.436Z,12.42
2023-02-19T19:58:49.707Z,12.54
2023-02-19T20:01:21.335Z,12.69
2023-02-19T20:03:56.492Z,12.68
2023-02-19T20:06:32.118Z,12.58
2023-02-19T20:09:04.979Z,12.67
2023-02-19T20:11:37.539Z,12.67
2023-02-19T20:14:06.326Z,12.55
2023-02-19T20:16:35.566Z,12.64
2023-02-19T20:19:06.370Z,12.60
2023-02-19T20:21:34.489Z,12.58
2023-02-19T20:24:04.310Z,12.41
2023-02-19T20:26:32.093Z,12.59
2023-02-19T20:29:06.275Z,12.47
2023-02-19T20:31:34.823Z,12.18
2023-02-19T20:34:04.261Z,12.17
2023-02-19T20:36:33.453Z,12.09
2023-02-19T20:39:05.049Z,12.16
2023-02-19T20:41:35.306Z,12.26
2023-02-19T20:44:03.533Z,12.17
2023-02-19T20:46:35.321Z,12.32
2023-02-19T20:49:03.032Z,12.56
2023-02-19T20:51:30.366Z,12.53
2023-02-19T20:53:59.246Z,12.53
2023-02-19T20:56:26.767Z,12.58
2023-02-19T20:58:55.290Z,12.54
2023-02-19T21:01:26.614Z,12.29
2023-02-19T21:03:54.763Z,12.53
2023-02-19T21:06:22.847Z,12.31
2023-02-19T21:08:50.501Z,12.05
2023-02-19T21:11:18.017Z,11.93
2023-02-19T21:13:46.261Z,11.65
2023-02-19T21:16:13.976Z,11.68
2023-02-19T21:18:43.006Z,11.77
2023-02-19T21:21:10.554Z,11.97
2023-02-19T21:23:41.426Z,11.66
2023-02-19T21:26:09.981Z,11.54
2023-02-19T21:28:38.524Z,11.30
2023-02-19T21:31:06.404Z,10.75
2023-02-19T21:33:33.992Z,10.80
2023-02-19T21:36:06.092Z,10.65
2023-02-19T21:38:36.638Z,10.42
2023-02-19T21:41:05.346Z,10.37
2023-02-19T21:43:33.166Z,10.20
2023-02-19T21:46:01.634Z,10.22
2023-02-19T21:48:29.261Z,10.02
2023-02-19T21:50:58.225Z,10.15
2023-02-19T21:53:27.014Z,10.37
2023-02-19T21:55:58.831Z,10.31
2023-02-19T21:58:29.927Z,10.37
2023-02-19T22:00:58.390Z,10.42
2023-02-19T22:03:27.644Z,10.63
2023-02-19T22:05:55.521Z,10.57
2023-02-19T22:08:24.723Z,10.71
2023-02-19T22:10:51.951Z,10.62
2023-02-19T22:13:21.321Z,10.88
2023-02-19T22:15:49.373Z,10.60
2023-02-19T22:18:17.406Z,10.57
2023-02-19T22:20:45.382Z,10.61
2023-02-19T22:23:17.624Z,10.78
2023-02-19T22:25:45.947Z,10.46
2023-02-19T22:28:14.695Z,10.69
2023-02-19T22:30:44.000Z,10.68
2023-02-19T22:33:12.177Z,10.68
2023-02-19T22:35:42.465Z,10.57
2023-02-19T22:38:12.951Z,10.76
2023-02-19T22:40:41.327Z,10.73
2023-02-19T22:43:08.904Z,10.59
2023-02-19T22:45:38.493Z,10.66
2023-02-19T22:48:07.268Z,10.66
2023-02-19T22:50:35.286Z,10.57
2023-02-19T22:53:02.840Z,10.55
2023-02-19T22:55:34.354Z,10.59
2023-02-19T22:58:03.495Z,10.51
2023-02-19T23:00:31.797Z,10.16
2023-02-19T23:03:20.809Z,10.42
2023-02-19T23:05:49.186Z,10.53
2023-02-19T23:08:18.852Z,10.48
2023-02-19T23:10:46.158Z,10.24
2023-02-19T23:13:14.909Z,10.22
2023-02-19T23:15:43.413Z,10.22
2023-02-19T23:18:14.315Z,10.23
2023-02-19T23:20:42.990Z,10.25
2023-02-19T23:23:11.453Z,10.26
2023-02-19T23:25:39.703Z,10.13
2023-02-19T23:28:08.307Z,9.93
2023-02-19T23:30:35.683Z,10.23
2023-02-19T23:33:04.986Z,10.07
2023-02-19T23:35:32.958Z,10.05
2023-02-19T23:38:01.544Z,10.16
2023-02-19T23:40:30.410Z,10.12
2023-02-19T23:42:58.171Z,10.16
2023-02-19T23:45:25.480Z,10.13
2023-02-19T23:47:53.084Z,10.11
2023-02-19T23:50:21.411Z,10.01
2023-02-19T23:52:49.087Z,9.92
2023-02-19T23:55:16.647Z,9.92
2023-02-19T23:57:45.826Z,10.01
